Carmacks, Canada
Current Conditions -  °F | °C
As of 9:29 AM on Friday 19 Dec 2014 (Local Time) from CYDB Reporting Station
Light Snow Light Snow  
Wind Chill:   Ceiling: 2200
Heat Index:   Visibility: 5mi
Dew Point: -2°   Wind: 2mph
Humidity: 85%   Direction: 260°W
Pressure: 29.32"   Gusts: NA
Location:  62.1°N, 136.32°W
Report Text: CYDB 191729Z 26002KT 5SM -SN BR FEW004 BKN022 OVC035 M17/M19 A2932 RMK SF1SC4SC3 SLP007
Loading
Personal Weather Stations






























Interactive Weather Map New forecast layout! Learn more

10-Day Weather Forecast

Advertisements
Track Severe Weather on mobile